createdAt,value
2022-08-11T00:01:48.436Z,22.2
2022-08-11T00:22:02.158Z,21.9
2022-08-11T00:41:49.716Z,21.7
2022-08-11T01:01:49.467Z,21.6
2022-08-11T01:22:22.203Z,21.3
2022-08-11T01:41:48.527Z,21.2
2022-08-11T02:02:33.354Z,21
2022-08-11T02:21:48.316Z,20.9
2022-08-11T02:41:49.177Z,20.6
2022-08-11T03:01:48.711Z,20.5
2022-08-11T03:22:02.031Z,20.4
2022-08-11T03:41:50.104Z,20.1
2022-08-11T04:21:49.571Z,20.8
2022-08-11T04:42:10.910Z,21
2022-08-11T05:01:49.084Z,20.9
2022-08-11T05:22:11.140Z,20.7
2022-08-11T06:02:12.146Z,21.4
2022-08-11T07:41:49.347Z,21.9
2022-08-11T08:02:12.525Z,22
2022-08-11T08:21:48.502Z,22.1
2022-08-11T09:01:49.322Z,22.3
2022-08-11T09:41:56.056Z,22.5
2022-08-11T10:01:49.868Z,22.6
2022-08-11T11:02:10.443Z,22.9
2022-08-11T11:21:59.745Z,23
2022-08-11T11:42:10.920Z,23.1
2022-08-11T12:02:17.328Z,23.2
2022-08-11T12:22:11.240Z,23.3
2022-08-11T12:42:47.711Z,23.4
2022-08-11T13:01:49.716Z,23.5
2022-08-11T13:21:48.905Z,23.7
2022-08-11T13:42:51.731Z,23.8
2022-08-11T14:22:36.235Z,24.1
2022-08-11T14:42:32.838Z,24.2
2022-08-11T15:02:33.517Z,24.5
2022-08-11T15:22:10.488Z,24.8
2022-08-11T15:42:11.672Z,25
2022-08-11T16:02:32.194Z,25.1
2022-08-11T16:21:49.087Z,25.4
2022-08-11T17:01:49.083Z,25.7
2022-08-11T17:21:56.546Z,25.8
2022-08-11T17:41:47.928Z,25.8
2022-08-11T18:02:10.688Z,25.8
2022-08-11T18:22:00.725Z,25.7
2022-08-11T18:42:32.289Z,25.5
2022-08-11T19:02:55.200Z,25.3
2022-08-11T19:21:49.421Z,25.1
2022-08-11T19:41:52.455Z,25.2
2022-08-11T20:02:54.984Z,25.2
2022-08-11T20:22:10.166Z,25.2
2022-08-11T20:42:11.727Z,25.2
2022-08-11T21:03:00.381Z,25.1
2022-08-11T21:21:48.951Z,25
2022-08-11T21:42:10.675Z,25
2022-08-11T22:03:02.743Z,24.9
2022-08-11T22:41:48.662Z,24.8
2022-08-11T23:01:54.602Z,24.6
2022-08-11T23:22:06.635Z,24.6
